UAL441 KLAS-KSNA
Flight info
| Callsign | UAL441 |
|---|---|
| Flight time | 0h 38m |
| Altitude | 24000 |
| Route | RADYR2 SLVRR FEYLA DSNEE6 |
| Aircraft | CRJ7/M-SDFGIRWY/S |
Departure
| Time | 2026-05-07 23:02 |
|---|---|
| Airport | Harry Reid International Airport (KLAS) |
Arrival
| Time | 2026-05-07 23:41 |
|---|---|
| Airport | John Wayne Orange County International Airport (KSNA) |
| Time | Latitude | Longitude | Altitude | Speed | Heading |
|---|---|---|---|---|---|
| 2026-05-07 22:19 | 36.08316 | -115.14006 | 2091 ft | 0 kts | 133° |
| 2026-05-07 22:44 | 36.08333 | -115.14028 | 2091 ft | 4 kts | 136° |
| 2026-05-07 22:44 | 36.08354 | -115.14049 | 2091 ft | 4 kts | 143° |
| 2026-05-07 22:45 | 36.08376 | -115.14065 | 2091 ft | 4 kts | 159° |
| 2026-05-07 22:45 | 36.08398 | -115.14066 | 2091 ft | 4 kts | 214° |
| 2026-05-07 22:45 | 36.08402 | -115.14062 | 2091 ft | 1 kts | 225° |
| 2026-05-07 22:47 | 36.08401 | -115.14063 | 2091 ft | 1 kts | 225° |
| 2026-05-07 22:47 | 36.08392 | -115.14075 | 2090 ft | 4 kts | 225° |
| 2026-05-07 22:48 | 36.08366 | -115.14106 | 2090 ft | 6 kts | 225° |
| 2026-05-07 22:48 | 36.08331 | -115.14149 | 2090 ft | 8 kts | 225° |
| 2026-05-07 22:48 | 36.08297 | -115.14190 | 2093 ft | 6 kts | 224° |
| 2026-05-07 22:48 | 36.08260 | -115.14232 | 2093 ft | 9 kts | 209° |
| 2026-05-07 22:49 | 36.08198 | -115.14242 | 2094 ft | 10 kts | 181° |
| 2026-05-07 22:49 | 36.08125 | -115.14242 | 2094 ft | 11 kts | 180° |
| 2026-05-07 22:49 | 36.08066 | -115.14242 | 2094 ft | 7 kts | 180° |
| 2026-05-07 22:49 | 36.08053 | -115.14242 | 2094 ft | 0 kts | 180° |
| 2026-05-07 22:50 | 36.08048 | -115.14242 | 2094 ft | 3 kts | 180° |
| 2026-05-07 22:50 | 36.08015 | -115.14242 | 2094 ft | 7 kts | 180° |
| 2026-05-07 22:50 | 36.07951 | -115.14242 | 2093 ft | 11 kts | 180° |
| 2026-05-07 22:50 | 36.07862 | -115.14226 | 2093 ft | 13 kts | 145° |
| 2026-05-07 22:51 | 36.07828 | -115.14118 | 2092 ft | 15 kts | 91° |
| 2026-05-07 22:51 | 36.07828 | -115.13986 | 2091 ft | 17 kts | 91° |
| 2026-05-07 22:51 | 36.07828 | -115.13836 | 2091 ft | 18 kts | 90° |
| 2026-05-07 22:51 | 36.07828 | -115.13676 | 2090 ft | 19 kts | 90° |
| 2026-05-07 22:52 | 36.07828 | -115.13515 | 2089 ft | 13 kts | 90° |
| 2026-05-07 22:52 | 36.07829 | -115.13421 | 2088 ft | 12 kts | 90° |
| 2026-05-07 22:52 | 36.07827 | -115.13306 | 2086 ft | 15 kts | 89° |
| 2026-05-07 22:52 | 36.07828 | -115.13169 | 2083 ft | 19 kts | 89° |
| 2026-05-07 22:53 | 36.07828 | -115.12990 | 2071 ft | 22 kts | 90° |
| 2026-05-07 22:53 | 36.07829 | -115.12818 | 2068 ft | 22 kts | 90° |
| 2026-05-07 22:53 | 36.07829 | -115.12611 | 2060 ft | 26 kts | 89° |
| 2026-05-07 22:53 | 36.07830 | -115.12426 | 2055 ft | 13 kts | 89° |
| 2026-05-07 22:54 | 36.07830 | -115.12312 | 2053 ft | 13 kts | 90° |
| 2026-05-07 22:54 | 36.07810 | -115.12241 | 2050 ft | 7 kts | 128° |
| 2026-05-07 22:54 | 36.07784 | -115.12200 | 2049 ft | 0 kts | 128° |
| 2026-05-07 22:55 | 36.07782 | -115.12196 | 2049 ft | 3 kts | 128° |
| 2026-05-07 22:56 | 36.07754 | -115.12155 | 2047 ft | 9 kts | 130° |
| 2026-05-07 22:56 | 36.07744 | -115.12141 | 2047 ft | 0 kts | 143° |
| 2026-05-07 22:58 | 36.07739 | -115.12137 | 2047 ft | 3 kts | 147° |
| 2026-05-07 22:58 | 36.07699 | -115.12124 | 2046 ft | 8 kts | 176° |
| 2026-05-07 22:59 | 36.07648 | -115.12153 | 2047 ft | 8 kts | 252° |
| 2026-05-07 22:59 | 36.07644 | -115.12179 | 2047 ft | 0 kts | 264° |
| 2026-05-07 23:01 | 36.07638 | -115.12255 | 2051 ft | 34 kts | 266° |
| 2026-05-07 23:01 | 36.07642 | -115.12831 | 2069 ft | 97 kts | 270° |
| 2026-05-07 23:01 | 36.07640 | -115.13833 | 2091 ft | 146 kts | 270° |
| 2026-05-07 23:02 | 36.07638 | -115.15147 | 2366 ft | 164 kts | 270° |
| 2026-05-07 23:02 | 36.07626 | -115.16480 | 3186 ft | 152 kts | 269° |
| 2026-05-07 23:02 | 36.07473 | -115.17873 | 3530 ft | 174 kts | 258° |
| 2026-05-07 23:02 | 36.07301 | -115.19341 | 4155 ft | 179 kts | 264° |
| 2026-05-07 23:03 | 36.07182 | -115.20976 | 4506 ft | 202 kts | 265° |
| 2026-05-07 23:03 | 36.07057 | -115.22804 | 4946 ft | 222 kts | 265° |
| 2026-05-07 23:03 | 36.06821 | -115.24728 | 5632 ft | 230 kts | 248° |
| 2026-05-07 23:03 | 36.05801 | -115.26227 | 6438 ft | 232 kts | 217° |
| 2026-05-07 23:04 | 36.04380 | -115.27205 | 7200 ft | 238 kts | 204° |
| 2026-05-07 23:04 | 36.02753 | -115.27962 | 7693 ft | 261 kts | 200° |
| 2026-05-07 23:04 | 36.00967 | -115.28687 | 8275 ft | 279 kts | 200° |
| 2026-05-07 23:04 | 35.99166 | -115.29410 | 8940 ft | 289 kts | 199° |
| 2026-05-07 23:05 | 35.97192 | -115.30013 | 9841 ft | 295 kts | 194° |
| 2026-05-07 23:05 | 35.95160 | -115.30494 | 10445 ft | 310 kts | 193° |
| 2026-05-07 23:05 | 35.92985 | -115.30995 | 10991 ft | 326 kts | 192° |
| 2026-05-07 23:05 | 35.90738 | -115.31505 | 11774 ft | 332 kts | 192° |
| 2026-05-07 23:06 | 35.88448 | -115.32022 | 12567 ft | 337 kts | 191° |
| 2026-05-07 23:06 | 35.86125 | -115.32577 | 13345 ft | 342 kts | 191° |
| 2026-05-07 23:06 | 35.83773 | -115.33147 | 14124 ft | 346 kts | 191° |
| 2026-05-07 23:06 | 35.81405 | -115.33723 | 14890 ft | 350 kts | 191° |
| 2026-05-07 23:07 | 35.78997 | -115.34312 | 15611 ft | 355 kts | 191° |
| 2026-05-07 23:07 | 35.76558 | -115.34910 | 16301 ft | 360 kts | 191° |
| 2026-05-07 23:07 | 35.74084 | -115.35516 | 16974 ft | 365 kts | 191° |
| 2026-05-07 23:07 | 35.71653 | -115.36110 | 17594 ft | 369 kts | 191° |
| 2026-05-07 23:08 | 35.69164 | -115.36718 | 18232 ft | 374 kts | 191° |
| 2026-05-07 23:08 | 35.66597 | -115.37345 | 18775 ft | 378 kts | 191° |
| 2026-05-07 23:08 | 35.64037 | -115.37968 | 19335 ft | 382 kts | 191° |
| 2026-05-07 23:08 | 35.61451 | -115.38788 | 19864 ft | 387 kts | 204° |
| 2026-05-07 23:09 | 35.59247 | -115.40642 | 20404 ft | 388 kts | 225° |
| 2026-05-07 23:09 | 35.57414 | -115.43080 | 20928 ft | 390 kts | 232° |
| 2026-05-07 23:09 | 35.55675 | -115.45657 | 21454 ft | 394 kts | 232° |
| 2026-05-07 23:09 | 35.53914 | -115.48252 | 21967 ft | 397 kts | 232° |
| 2026-05-07 23:10 | 35.52223 | -115.50633 | 22433 ft | 401 kts | 230° |
| 2026-05-07 23:10 | 35.50329 | -115.53175 | 22926 ft | 405 kts | 229° |
| 2026-05-07 23:10 | 35.48414 | -115.55737 | 23411 ft | 409 kts | 230° |
| 2026-05-07 23:10 | 35.46484 | -115.58339 | 23710 ft | 417 kts | 230° |
| 2026-05-07 23:11 | 35.44510 | -115.61005 | 23840 ft | 428 kts | 230° |
| 2026-05-07 23:11 | 35.42558 | -115.63628 | 23900 ft | 440 kts | 230° |
| 2026-05-07 23:11 | 35.40466 | -115.66444 | 23924 ft | 453 kts | 229° |
| 2026-05-07 23:11 | 35.38350 | -115.69295 | 23946 ft | 463 kts | 229° |
| 2026-05-07 23:12 | 35.36168 | -115.72222 | 23959 ft | 466 kts | 229° |
| 2026-05-07 23:12 | 35.33987 | -115.75150 | 23962 ft | 465 kts | 229° |
| 2026-05-07 23:12 | 35.31792 | -115.78060 | 23942 ft | 465 kts | 229° |
| 2026-05-07 23:12 | 35.29603 | -115.80980 | 23926 ft | 465 kts | 229° |
| 2026-05-07 23:13 | 35.27498 | -115.83797 | 23920 ft | 465 kts | 229° |
| 2026-05-07 23:13 | 35.25394 | -115.86599 | 23920 ft | 465 kts | 229° |
| 2026-05-07 23:13 | 35.23214 | -115.89510 | 23902 ft | 465 kts | 229° |
| 2026-05-07 23:13 | 35.20985 | -115.92382 | 23904 ft | 465 kts | 227° |
| 2026-05-07 23:14 | 35.18724 | -115.95206 | 23896 ft | 465 kts | 227° |
| 2026-05-07 23:14 | 35.16478 | -115.98038 | 23889 ft | 464 kts | 227° |
| 2026-05-07 23:14 | 35.14335 | -116.00749 | 23889 ft | 464 kts | 227° |
| 2026-05-07 23:14 | 35.12118 | -116.03543 | 23876 ft | 464 kts | 227° |
| 2026-05-07 23:15 | 35.09871 | -116.06374 | 23884 ft | 464 kts | 227° |
| 2026-05-07 23:15 | 35.07617 | -116.09202 | 23888 ft | 465 kts | 227° |
| 2026-05-07 23:15 | 35.05363 | -116.12037 | 23878 ft | 466 kts | 227° |
| 2026-05-07 23:15 | 35.03098 | -116.14883 | 23876 ft | 467 kts | 227° |
| 2026-05-07 23:16 | 35.00829 | -116.17727 | 23877 ft | 468 kts | 227° |
| 2026-05-07 23:16 | 34.98752 | -116.20335 | 23876 ft | 469 kts | 227° |
| 2026-05-07 23:16 | 34.96477 | -116.23183 | 23882 ft | 470 kts | 227° |
| 2026-05-07 23:16 | 34.94194 | -116.26040 | 23877 ft | 470 kts | 227° |
| 2026-05-07 23:17 | 34.91913 | -116.28903 | 23878 ft | 471 kts | 227° |
| 2026-05-07 23:17 | 34.89626 | -116.31759 | 23885 ft | 472 kts | 227° |
| 2026-05-07 23:17 | 34.87338 | -116.34619 | 23886 ft | 471 kts | 227° |
| 2026-05-07 23:17 | 34.85155 | -116.37345 | 23880 ft | 468 kts | 227° |
| 2026-05-07 23:18 | 34.82896 | -116.40171 | 23878 ft | 463 kts | 227° |
| 2026-05-07 23:18 | 34.80690 | -116.42970 | 23895 ft | 454 kts | 227° |
| 2026-05-07 23:18 | 34.78525 | -116.45729 | 23894 ft | 447 kts | 227° |
| 2026-05-07 23:18 | 34.76422 | -116.48399 | 23903 ft | 440 kts | 227° |
| 2026-05-07 23:19 | 34.74321 | -116.51072 | 23911 ft | 434 kts | 227° |
| 2026-05-07 23:19 | 34.72244 | -116.53710 | 23919 ft | 428 kts | 227° |
| 2026-05-07 23:19 | 34.70350 | -116.56106 | 23920 ft | 427 kts | 227° |
| 2026-05-07 23:19 | 34.68272 | -116.58684 | 23920 ft | 427 kts | 225° |
| 2026-05-07 23:20 | 34.66093 | -116.61144 | 23726 ft | 430 kts | 222° |
| 2026-05-07 23:20 | 34.63829 | -116.63529 | 23328 ft | 432 kts | 221° |
| 2026-05-07 23:20 | 34.61546 | -116.65915 | 22848 ft | 433 kts | 221° |
| 2026-05-07 23:20 | 34.59274 | -116.68309 | 22381 ft | 432 kts | 222° |
| 2026-05-07 23:21 | 34.57028 | -116.70729 | 21916 ft | 431 kts | 222° |
| 2026-05-07 23:21 | 34.54940 | -116.72987 | 21489 ft | 425 kts | 222° |
| 2026-05-07 23:21 | 34.52753 | -116.75348 | 21064 ft | 416 kts | 222° |
| 2026-05-07 23:21 | 34.50610 | -116.77652 | 20614 ft | 408 kts | 222° |
| 2026-05-07 23:22 | 34.48512 | -116.79910 | 20269 ft | 398 kts | 222° |
| 2026-05-07 23:22 | 34.46484 | -116.82100 | 20218 ft | 381 kts | 222° |
| 2026-05-07 23:22 | 34.44538 | -116.84194 | 19872 ft | 376 kts | 222° |
| 2026-05-07 23:22 | 34.42572 | -116.86307 | 19206 ft | 381 kts | 222° |
| 2026-05-07 23:23 | 34.40582 | -116.88446 | 18606 ft | 384 kts | 222° |
| 2026-05-07 23:23 | 34.38763 | -116.90399 | 18035 ft | 386 kts | 222° |
| 2026-05-07 23:23 | 34.36752 | -116.92557 | 17342 ft | 387 kts | 221° |
| 2026-05-07 23:23 | 34.34737 | -116.94719 | 16676 ft | 387 kts | 222° |
| 2026-05-07 23:24 | 34.32750 | -116.96851 | 16080 ft | 386 kts | 222° |
| 2026-05-07 23:24 | 34.30754 | -116.98996 | 15545 ft | 381 kts | 222° |
| 2026-05-07 23:24 | 34.28780 | -117.01108 | 15035 ft | 377 kts | 222° |
| 2026-05-07 23:24 | 34.26910 | -117.03089 | 14541 ft | 373 kts | 220° |
| 2026-05-07 23:25 | 34.24817 | -117.04920 | 14037 ft | 370 kts | 212° |
| 2026-05-07 23:25 | 34.22621 | -117.06489 | 13503 ft | 365 kts | 210° |
| 2026-05-07 23:25 | 34.20417 | -117.07978 | 12942 ft | 361 kts | 209° |
| 2026-05-07 23:25 | 34.18262 | -117.09433 | 12657 ft | 349 kts | 210° |
| 2026-05-07 23:26 | 34.16174 | -117.10831 | 12365 ft | 336 kts | 207° |
| 2026-05-07 23:26 | 34.14106 | -117.12007 | 12071 ft | 321 kts | 204° |
| 2026-05-07 23:26 | 34.12103 | -117.13041 | 11875 ft | 307 kts | 203° |
| 2026-05-07 23:26 | 34.10157 | -117.14028 | 11706 ft | 301 kts | 204° |
| 2026-05-07 23:27 | 34.06422 | -117.16073 | 11340 ft | 289 kts | 218° |
| 2026-05-07 23:27 | 34.05056 | -117.17792 | 11160 ft | 282 kts | 229° |
| 2026-05-07 23:27 | 34.03380 | -117.19033 | 11000 ft | 290 kts | 197° |
| 2026-05-07 23:28 | 34.01488 | -117.19840 | 10845 ft | 295 kts | 213° |
| 2026-05-07 23:28 | 33.99873 | -117.21307 | 10717 ft | 290 kts | 221° |
| 2026-05-07 23:28 | 33.98415 | -117.22806 | 10660 ft | 288 kts | 223° |
| 2026-05-07 23:28 | 33.96980 | -117.24346 | 10550 ft | 289 kts | 224° |
| 2026-05-07 23:29 | 33.95564 | -117.25925 | 10419 ft | 290 kts | 225° |
| 2026-05-07 23:29 | 33.94105 | -117.27574 | 10272 ft | 286 kts | 225° |
| 2026-05-07 23:29 | 33.92694 | -117.29271 | 10183 ft | 286 kts | 229° |
| 2026-05-07 23:29 | 33.91378 | -117.31081 | 10045 ft | 288 kts | 232° |
| 2026-05-07 23:30 | 33.90103 | -117.32966 | 9824 ft | 292 kts | 233° |
| 2026-05-07 23:30 | 33.88814 | -117.34844 | 9572 ft | 290 kts | 233° |
| 2026-05-07 23:30 | 33.87528 | -117.36698 | 9329 ft | 287 kts | 232° |
| 2026-05-07 23:30 | 33.86244 | -117.38522 | 9090 ft | 282 kts | 232° |
| 2026-05-07 23:31 | 33.84980 | -117.40271 | 8828 ft | 272 kts | 231° |
| 2026-05-07 23:31 | 33.83776 | -117.41928 | 8592 ft | 259 kts | 232° |
| 2026-05-07 23:31 | 33.82610 | -117.43559 | 8358 ft | 251 kts | 232° |
| 2026-05-07 23:31 | 33.81586 | -117.45183 | 8163 ft | 242 kts | 245° |
| 2026-05-07 23:32 | 33.80935 | -117.47005 | 8054 ft | 233 kts | 253° |
| 2026-05-07 23:32 | 33.80423 | -117.48798 | 7993 ft | 221 kts | 254° |
| 2026-05-07 23:32 | 33.79951 | -117.50483 | 8002 ft | 207 kts | 254° |
| 2026-05-07 23:32 | 33.79489 | -117.52110 | 7997 ft | 205 kts | 256° |
| 2026-05-07 23:33 | 33.79474 | -117.53770 | 7993 ft | 199 kts | 282° |
| 2026-05-07 23:33 | 33.79703 | -117.55415 | 8000 ft | 201 kts | 281° |
| 2026-05-07 23:33 | 33.79928 | -117.57076 | 7984 ft | 202 kts | 282° |
| 2026-05-07 23:33 | 33.80418 | -117.58634 | 7988 ft | 201 kts | 300° |
| 2026-05-07 23:34 | 33.81047 | -117.60027 | 7989 ft | 202 kts | 300° |
| 2026-05-07 23:34 | 33.81710 | -117.61454 | 7812 ft | 209 kts | 300° |
| 2026-05-07 23:34 | 33.82404 | -117.62972 | 7487 ft | 206 kts | 296° |
| 2026-05-07 23:34 | 33.82649 | -117.64646 | 7170 ft | 204 kts | 275° |
| 2026-05-07 23:35 | 33.82760 | -117.66332 | 6872 ft | 201 kts | 276° |
| 2026-05-07 23:35 | 33.82882 | -117.67995 | 6531 ft | 198 kts | 275° |
| 2026-05-07 23:35 | 33.82811 | -117.69642 | 6148 ft | 195 kts | 269° |
| 2026-05-07 23:35 | 33.82840 | -117.71255 | 5827 ft | 192 kts | 274° |
| 2026-05-07 23:36 | 33.82918 | -117.72843 | 5508 ft | 189 kts | 275° |
| 2026-05-07 23:36 | 33.83017 | -117.74414 | 5199 ft | 187 kts | 275° |
| 2026-05-07 23:36 | 33.83100 | -117.75964 | 4888 ft | 185 kts | 270° |
| 2026-05-07 23:36 | 33.82586 | -117.77326 | 4522 ft | 190 kts | 224° |
| 2026-05-07 23:37 | 33.81439 | -117.78124 | 4210 ft | 190 kts | 211° |
| 2026-05-07 23:37 | 33.80256 | -117.78826 | 3908 ft | 189 kts | 209° |
| 2026-05-07 23:37 | 33.79072 | -117.79496 | 3602 ft | 187 kts | 209° |
| 2026-05-07 23:37 | 33.77907 | -117.80127 | 3343 ft | 182 kts | 208° |
| 2026-05-07 23:38 | 33.76740 | -117.80756 | 2792 ft | 185 kts | 209° |
| 2026-05-07 23:38 | 33.75616 | -117.81460 | 2366 ft | 178 kts | 213° |
| 2026-05-07 23:38 | 33.74661 | -117.82221 | 2078 ft | 156 kts | 214° |
| 2026-05-07 23:38 | 33.73768 | -117.82885 | 1670 ft | 143 kts | 212° |
| 2026-05-07 23:39 | 33.72923 | -117.83476 | 1276 ft | 139 kts | 210° |
| 2026-05-07 23:39 | 33.72076 | -117.84025 | 1090 ft | 136 kts | 207° |
| 2026-05-07 23:39 | 33.71261 | -117.84558 | 874 ft | 134 kts | 208° |
| 2026-05-07 23:39 | 33.70424 | -117.85097 | 661 ft | 137 kts | 207° |
| 2026-05-07 23:40 | 33.69635 | -117.85581 | 409 ft | 132 kts | 208° |
| 2026-05-07 23:40 | 33.68850 | -117.86091 | 220 ft | 132 kts | 209° |
| 2026-05-07 23:40 | 33.68046 | -117.86586 | 65 ft | 122 kts | 210° |
| 2026-05-07 23:40 | 33.67432 | -117.86972 | 53 ft | 63 kts | 209° |
| 2026-05-07 23:41 | 33.67175 | -117.87136 | 50 ft | 31 kts | 210° |
| 2026-05-07 23:41 | 33.67031 | -117.87220 | 52 ft | 18 kts | 192° |
| 2026-05-07 23:41 | 33.66932 | -117.87181 | 50 ft | 7 kts | 135° |
| 2026-05-07 23:41 | 33.66907 | -117.87116 | 49 ft | 10 kts | 85° |
| 2026-05-07 23:42 | 33.66954 | -117.87051 | 48 ft | 12 kts | 41° |
| 2026-05-07 23:42 | 33.67022 | -117.86980 | 47 ft | 14 kts | 40° |
| 2026-05-07 23:42 | 33.67102 | -117.86900 | 49 ft | 15 kts | 38° |
| 2026-05-07 23:42 | 33.67196 | -117.86828 | 49 ft | 17 kts | 29° |
| 2026-05-07 23:43 | 33.67298 | -117.86742 | 49 ft | 19 kts | 45° |
| 2026-05-07 23:43 | 33.67391 | -117.86662 | 49 ft | 10 kts | 27° |
| 2026-05-07 23:43 | 33.67459 | -117.86620 | 48 ft | 12 kts | 27° |
| 2026-05-07 23:43 | 33.67543 | -117.86567 | 47 ft | 15 kts | 28° |
| 2026-05-07 23:44 | 33.67634 | -117.86505 | 49 ft | 10 kts | 31° |
| 2026-05-07 23:44 | 33.67662 | -117.86474 | 49 ft | 5 kts | 70° |
| 2026-05-07 23:44 | 33.67657 | -117.86441 | 49 ft | 3 kts | 115° |
| 2026-05-07 23:44 | 33.67648 | -117.86417 | 47 ft | 1 kts | 117° |
| 2026-05-07 23:45 | 33.67647 | -117.86416 | 47 ft | 0 kts | 117° |